createdAt,value
2023-01-30T00:00:30.610Z,95141.61
2023-01-30T00:02:55.305Z,95142.52
2023-01-30T00:05:21.737Z,95141.66
2023-01-30T00:07:48.030Z,95144.05
2023-01-30T00:10:14.481Z,95136.92
2023-01-30T00:12:40.809Z,95129.21
2023-01-30T00:15:07.195Z,95123.80
2023-01-30T00:17:33.532Z,95125.36
2023-01-30T00:19:59.926Z,95124.89
2023-01-30T00:22:26.272Z,95126.37
2023-01-30T00:24:52.745Z,95130.50
2023-01-30T00:27:18.981Z,95131.32
2023-01-30T00:29:54.382Z,95129.21
2023-01-30T00:32:11.717Z,95130.95
2023-01-30T00:34:38.105Z,95135.18
2023-01-30T00:37:08.463Z,95133.13
2023-01-30T00:39:30.793Z,95132.48
2023-01-30T00:41:57.181Z,95127.01
2023-01-30T00:44:23.523Z,95125.96
2023-01-30T00:46:49.903Z,95121.73
2023-01-30T00:49:16.253Z,95118.34
2023-01-30T00:51:42.644Z,95107.97
2023-01-30T00:54:08.973Z,95110.99
2023-01-30T00:56:35.358Z,95119.08
2023-01-30T00:59:01.693Z,95107.97
2023-01-30T01:01:28.103Z,95114.73
2023-01-30T01:03:54.443Z,95115.45
2023-01-30T01:06:20.866Z,95110.87
2023-01-30T01:08:47.210Z,95109.03
2023-01-30T01:11:13.584Z,95109.86
2023-01-30T01:13:39.925Z,95111.02
2023-01-30T01:16:06.367Z,95111.84
2023-01-30T01:18:32.689Z,95109.03
2023-01-30T01:21:00.282Z,95106.33
2023-01-30T01:23:25.413Z,95103.42
2023-01-30T01:25:51.829Z,95103.77
2023-01-30T01:28:18.166Z,95096.05
2023-01-30T01:30:44.546Z,95100.39
2023-01-30T01:33:10.939Z,95098.16
2023-01-30T01:35:37.336Z,95099.66
2023-01-30T01:38:03.689Z,95097.33
2023-01-30T01:40:30.070Z,95092.19
2023-01-30T01:42:56.418Z,95097.61
2023-01-30T01:45:22.822Z,95096.54
2023-01-30T01:47:49.152Z,95092.19
2023-01-30T01:50:15.539Z,95096.19
2023-01-30T01:52:41.870Z,95104.59
2023-01-30T01:55:08.252Z,95107.40
2023-01-30T01:57:34.874Z,95099.46
2023-01-30T02:00:01.264Z,95096.89
2023-01-30T02:02:29.907Z,95093.52
2023-01-30T02:04:56.272Z,95098.40
2023-01-30T02:07:22.618Z,95096.09
2023-01-30T02:09:48.999Z,95102.03
2023-01-30T02:12:15.333Z,95103.69
2023-01-30T02:14:41.712Z,95099.00
2023-01-30T02:17:08.059Z,95095.75
2023-01-30T02:19:34.441Z,95096.43
2023-01-30T02:22:00.783Z,95095.95
2023-01-30T02:24:27.159Z,95093.02
2023-01-30T02:26:53.506Z,95090.57
2023-01-30T02:29:19.904Z,95100.27
2023-01-30T02:31:46.302Z,95092.55
2023-01-30T02:34:12.625Z,95088.00
2023-01-30T02:36:38.964Z,95088.92
2023-01-30T02:39:05.426Z,95092.53
2023-01-30T02:41:31.774Z,95085.87
2023-01-30T02:43:58.153Z,95087.16
2023-01-30T02:46:24.565Z,95089.60
2023-01-30T02:48:50.944Z,95078.95
2023-01-30T02:51:17.314Z,95079.53
2023-01-30T02:53:43.688Z,95078.80
2023-01-30T02:56:10.066Z,95082.30
2023-01-30T02:58:36.453Z,95075.50
2023-01-30T03:01:02.844Z,95075.05
2023-01-30T03:03:29.204Z,95073.39
2023-01-30T03:05:55.546Z,95084.05
2023-01-30T03:08:21.936Z,95084.96
2023-01-30T03:10:48.269Z,95079.48
2023-01-30T03:13:14.671Z,95078.75
2023-01-30T03:15:41.018Z,95074.44
2023-01-30T03:18:07.387Z,95071.41
2023-01-30T03:20:33.728Z,95063.22
2023-01-30T03:23:00.120Z,95062.84
2023-01-30T03:25:26.483Z,95055.59
2023-01-30T03:27:52.890Z,95056.05
2023-01-30T03:30:19.224Z,95053.16
2023-01-30T03:32:45.606Z,95049.17
2023-01-30T03:35:11.971Z,95048.80
2023-01-30T03:37:38.353Z,95046.00
2023-01-30T03:40:04.699Z,95043.33
2023-01-30T03:42:31.071Z,95041.68
2023-01-30T03:44:57.411Z,95037.46
2023-01-30T03:47:23.787Z,95039.57
2023-01-30T03:49:50.127Z,95052.05
2023-01-30T03:52:16.526Z,95052.42
2023-01-30T03:54:42.867Z,95048.69
2023-01-30T03:57:09.246Z,95049.02
2023-01-30T03:59:35.620Z,95046.00
2023-01-30T04:02:02.030Z,95043.42
2023-01-30T04:04:28.335Z,95042.73
2023-01-30T04:06:54.735Z,95037.92
2023-01-30T04:09:21.073Z,95042.27
2023-01-30T04:11:47.455Z,95033.27
2023-01-30T04:14:13.793Z,95038.41
2023-01-30T04:16:40.203Z,95038.87
2023-01-30T04:19:06.554Z,95040.25
2023-01-30T04:21:32.921Z,95041.53
2023-01-30T04:23:59.262Z,95041.99
2023-01-30T04:26:25.721Z,95033.58
2023-01-30T04:28:52.001Z,95046.80
2023-01-30T04:31:18.404Z,95036.16
2023-01-30T04:33:44.725Z,95044.78
2023-01-30T04:36:11.110Z,95038.95
2023-01-30T04:38:37.447Z,95040.59
2023-01-30T04:41:03.909Z,95043.62
2023-01-30T04:43:30.266Z,95039.09
2023-01-30T04:45:56.639Z,95038.27
2023-01-30T04:48:22.977Z,95035.57
2023-01-30T04:50:49.361Z,95032.78
2023-01-30T04:53:15.700Z,95027.64
2023-01-30T04:55:42.092Z,95029.19
2023-01-30T04:58:08.440Z,95025.21
2023-01-30T05:00:34.864Z,95027.32
2023-01-30T05:03:01.165Z,95019.52
2023-01-30T05:05:27.552Z,95016.45
2023-01-30T05:07:53.892Z,95019.62
2023-01-30T05:10:20.283Z,95014.98
2023-01-30T05:12:46.624Z,95017.05
2023-01-30T05:15:13.014Z,95016.14
2023-01-30T05:17:39.353Z,95011.45
2023-01-30T05:20:05.748Z,95017.11
2023-01-30T05:22:32.080Z,95017.89
2023-01-30T05:24:58.491Z,95019.13
2023-01-30T05:27:24.815Z,95023.81
2023-01-30T05:29:51.203Z,95024.78
2023-01-30T05:32:17.551Z,95024.55
2023-01-30T05:34:43.937Z,95027.95
2023-01-30T05:37:10.298Z,95026.67
2023-01-30T05:39:36.681Z,95022.81
2023-01-30T05:42:03.027Z,95020.84
2023-01-30T05:44:29.412Z,95014.55
2023-01-30T05:46:55.874Z,95011.75
2023-01-30T05:49:22.145Z,95023.80
2023-01-30T05:51:50.558Z,95021.82
2023-01-30T05:54:14.956Z,95027.33
2023-01-30T05:56:41.325Z,95026.05
2023-01-30T05:59:07.717Z,95031.06
2023-01-30T06:01:34.069Z,95028.49
2023-01-30T06:04:00.505Z,95028.03
2023-01-30T06:06:26.818Z,95030.50
2023-01-30T06:08:53.185Z,95031.20
2023-01-30T06:11:19.564Z,95027.58
2023-01-30T06:13:45.925Z,95034.50
2023-01-30T06:16:12.592Z,95034.50
2023-01-30T06:18:38.893Z,95035.09
2023-01-30T06:21:05.231Z,95030.51
2023-01-30T06:23:31.612Z,95021.05
2023-01-30T06:25:57.981Z,95023.75
2023-01-30T06:28:24.405Z,95012.73
2023-01-30T06:30:50.858Z,95012.50
2023-01-30T06:33:17.124Z,95010.98
2023-01-30T06:35:43.472Z,95015.34
2023-01-30T06:38:09.946Z,95014.97
2023-01-30T06:40:36.385Z,95016.16
2023-01-30T06:43:02.755Z,95014.05
2023-01-30T06:45:29.097Z,95018.06
2023-01-30T06:47:55.526Z,95027.20
2023-01-30T06:50:21.859Z,95025.33
2023-01-30T06:52:48.254Z,95026.52
2023-01-30T06:55:14.604Z,95028.95
2023-01-30T06:57:40.988Z,95029.55
2023-01-30T07:00:07.344Z,95027.92
2023-01-30T07:02:33.737Z,95030.03
2023-01-30T07:05:00.090Z,95036.46
2023-01-30T07:07:26.519Z,95038.94
2023-01-30T07:10:06.979Z,95039.62
2023-01-30T07:12:19.290Z,95046.66
2023-01-30T07:14:45.633Z,95034.35
2023-01-30T07:17:12.070Z,95040.33
2023-01-30T07:19:38.378Z,95039.61
2023-01-30T07:22:04.770Z,95046.41
2023-01-30T07:24:31.121Z,95044.08
2023-01-30T07:26:57.515Z,95046.54
2023-01-30T07:29:23.848Z,95051.80
2023-01-30T07:31:50.315Z,95048.52
2023-01-30T07:34:16.604Z,95051.09
2023-01-30T07:36:42.988Z,95058.81
2023-01-30T07:39:09.325Z,95055.99
2023-01-30T07:41:35.711Z,95060.94
2023-01-30T07:44:02.063Z,95058.34
2023-01-30T07:46:28.445Z,95063.77
2023-01-30T07:48:54.796Z,95063.53
2023-01-30T07:51:21.188Z,95062.34
2023-01-30T07:53:47.537Z,95055.80
2023-01-30T07:56:13.993Z,95057.17
2023-01-30T07:58:40.354Z,95048.05
2023-01-30T08:01:06.779Z,95047.70
2023-01-30T08:03:33.114Z,95045.23
2023-01-30T08:05:59.497Z,95037.27
2023-01-30T08:08:25.880Z,95035.42
2023-01-30T08:10:52.313Z,95000.36
2023-01-30T08:13:18.661Z,95027.45
2023-01-30T08:15:45.120Z,95028.36
2023-01-30T08:18:11.495Z,95032.59
2023-01-30T08:20:37.901Z,95027.30
2023-01-30T08:23:04.238Z,95028.59
2023-01-30T08:25:30.650Z,95032.56
2023-01-30T08:27:56.984Z,95033.27
2023-01-30T08:30:23.468Z,95029.30
2023-01-30T08:32:49.735Z,95024.13
2023-01-30T08:35:16.111Z,95020.61
2023-01-30T08:37:42.509Z,95020.61
2023-01-30T08:40:08.901Z,95014.77
2023-01-30T08:42:36.203Z,95019.31
2023-01-30T08:45:01.635Z,95006.45
2023-01-30T08:47:27.971Z,95004.83
2023-01-30T08:49:54.372Z,95002.48
2023-01-30T08:52:20.725Z,95003.66
2023-01-30T08:54:47.110Z,94999.45
2023-01-30T08:57:13.453Z,95002.48
2023-01-30T08:59:39.867Z,95000.37
2023-01-30T09:02:06.339Z,95000.81
2023-01-30T09:04:32.615Z,94991.61
2023-01-30T09:06:59.012Z,94987.02
2023-01-30T09:09:25.375Z,94988.42
2023-01-30T09:11:51.719Z,94978.95
2023-01-30T09:14:18.113Z,94980.23
2023-01-30T09:16:44.517Z,94978.13
2023-01-30T09:19:10.856Z,94973.57
2023-01-30T09:21:37.222Z,94972.28
2023-01-30T09:24:03.629Z,94977.77
2023-01-30T09:26:30.013Z,94973.89
2023-01-30T09:28:56.427Z,94972.59
2023-01-30T09:31:22.847Z,94973.31
2023-01-30T09:33:49.226Z,94974.26
2023-01-30T09:36:15.568Z,94968.98
2023-01-30T09:38:41.974Z,94974.71
2023-01-30T09:41:08.328Z,94972.84
2023-01-30T09:43:34.716Z,94971.66
2023-01-30T09:46:01.127Z,94970.84
2023-01-30T09:48:27.466Z,94969.22
2023-01-30T09:50:55.342Z,94967.11
2023-01-30T09:53:20.267Z,94959.84
2023-01-30T09:55:46.654Z,94955.98
2023-01-30T09:58:13.038Z,94915.62
2023-01-30T10:00:39.411Z,94943.89
2023-01-30T10:03:05.876Z,94945.89
2023-01-30T10:05:32.197Z,94942.96
2023-01-30T10:07:58.679Z,94938.74
2023-01-30T10:10:24.970Z,94940.73
2023-01-30T10:12:51.363Z,94934.77
2023-01-30T10:15:17.757Z,94929.75
2023-01-30T10:17:44.153Z,94922.13
2023-01-30T10:20:10.493Z,94891.73
2023-01-30T10:22:36.953Z,94911.48
2023-01-30T10:25:03.297Z,94902.58
2023-01-30T10:27:31.363Z,94867.98
2023-01-30T10:29:56.027Z,94900.58
2023-01-30T10:32:22.425Z,94901.16
2023-01-30T10:34:48.778Z,94897.75
2023-01-30T10:37:15.199Z,94888.98
2023-01-30T10:39:54.195Z,94878.08
2023-01-30T10:42:08.220Z,94877.28
2023-01-30T10:44:34.262Z,94874.20
2023-01-30T10:47:00.706Z,94867.30
2023-01-30T10:49:27.044Z,94864.02
2023-01-30T10:51:53.424Z,94855.23
2023-01-30T10:54:20.080Z,94853.84
2023-01-30T10:56:46.198Z,94851.02
2023-01-30T10:59:12.510Z,94838.84
2023-01-30T11:01:38.934Z,94828.64
2023-01-30T11:04:05.315Z,94825.36
2023-01-30T11:06:31.655Z,94818.94
2023-01-30T11:08:58.061Z,94813.29
2023-01-30T11:11:24.454Z,94804.95
2023-01-30T11:13:50.813Z,94800.19
2023-01-30T11:16:17.167Z,94799.11
2023-01-30T11:21:09.898Z,94786.33
2023-01-30T11:23:36.314Z,94790.09
2023-01-30T11:26:11.213Z,94786.33
2023-01-30T11:28:29.055Z,94778.74
2023-01-30T11:30:55.410Z,94763.86
2023-01-30T11:33:21.823Z,94755.41
2023-01-30T11:35:48.141Z,94755.19
2023-01-30T11:38:14.541Z,94759.67
2023-01-30T11:40:40.896Z,94752.47
2023-01-30T11:43:07.303Z,94744.42
2023-01-30T11:45:33.678Z,94744.27
2023-01-30T11:48:03.711Z,94738.75
2023-01-30T11:50:28.858Z,94732.78
2023-01-30T11:52:52.824Z,94733.59
2023-01-30T11:55:19.245Z,94728.70
2023-01-30T11:57:45.600Z,94714.06
2023-01-30T12:00:11.960Z,94707.62
2023-01-30T12:02:38.452Z,94708.91
2023-01-30T12:05:04.737Z,94702.88
2023-01-30T12:07:31.232Z,94699.37
2023-01-30T12:09:57.602Z,94695.41
2023-01-30T12:12:24.001Z,94686.29
2023-01-30T12:14:50.355Z,94679.78
2023-01-30T12:17:16.767Z,94676.69
2023-01-30T12:19:43.191Z,94672.63
2023-01-30T12:22:09.582Z,94668.72
2023-01-30T12:24:37.154Z,94667.17
2023-01-30T12:27:02.356Z,94667.88
2023-01-30T12:29:28.693Z,94669.26
2023-01-30T12:31:55.099Z,94669.75
2023-01-30T12:34:24.348Z,94659.79
2023-01-30T12:36:47.863Z,94655.41
2023-01-30T12:39:14.246Z,94655.41
2023-01-30T12:41:40.646Z,94656.37
2023-01-30T12:44:06.985Z,94646.79
2023-01-30T12:46:33.489Z,94646.79
2023-01-30T12:49:11.078Z,94644.06
2023-01-30T12:51:26.167Z,94637.30
2023-01-30T12:53:52.518Z,94631.80
2023-01-30T12:56:18.940Z,94631.70
2023-01-30T12:58:45.322Z,94625.70
2023-01-30T13:01:11.721Z,94618.64
2023-01-30T13:03:38.069Z,94615.45
2023-01-30T13:06:04.457Z,94617.09
2023-01-30T13:08:30.814Z,94610.65
2023-01-30T13:10:57.206Z,94612.70
2023-01-30T13:13:23.557Z,94615.89
2023-01-30T13:15:50.698Z,94615.39
2023-01-30T13:18:16.343Z,94617.62
2023-01-30T13:20:42.764Z,94610.62
2023-01-30T13:23:09.093Z,94607.69
2023-01-30T13:25:37.730Z,94606.19
2023-01-30T13:28:04.071Z,94605.72
2023-01-30T13:30:30.499Z,94598.55
2023-01-30T13:32:56.848Z,94594.12
2023-01-30T13:35:23.238Z,94584.29
2023-01-30T13:37:49.636Z,94586.48
2023-01-30T13:40:18.367Z,94584.38
2023-01-30T13:42:42.462Z,94579.60
2023-01-30T13:45:08.893Z,94577.38
2023-01-30T13:47:35.238Z,94575.94
2023-01-30T13:50:01.651Z,94561.59
2023-01-30T13:52:27.981Z,94561.59
2023-01-30T13:54:54.468Z,94571.29
2023-01-30T13:57:20.748Z,94570.67
2023-01-30T13:59:47.128Z,94577.52
2023-01-30T14:02:13.468Z,94575.18
2023-01-30T14:04:39.840Z,94572.60
2023-01-30T14:07:06.178Z,94575.50
2023-01-30T14:09:32.578Z,94569.47
2023-01-30T14:11:58.915Z,94573.92
2023-01-30T14:14:25.337Z,94572.78
2023-01-30T14:16:51.681Z,94570.05
2023-01-30T14:19:18.077Z,94578.34
2023-01-30T14:21:44.425Z,94572.25
2023-01-30T14:24:10.825Z,94575.09
2023-01-30T14:26:37.270Z,94570.14
2023-01-30T14:29:03.554Z,94578.48
2023-01-30T14:31:30.025Z,94578.34
2023-01-30T14:33:56.297Z,94577.20
2023-01-30T14:36:22.654Z,94572.31
2023-01-30T14:38:49.035Z,94579.48
2023-01-30T14:41:15.411Z,94569.59
2023-01-30T14:43:41.827Z,94569.59
2023-01-30T14:46:09.041Z,94573.07
2023-01-30T14:48:36.111Z,94567.45
2023-01-30T14:51:00.923Z,94559.57
2023-01-30T14:53:27.309Z,94556.59
2023-01-30T14:55:53.654Z,94554.86
2023-01-30T14:58:22.472Z,94542.94
2023-01-30T15:00:48.847Z,94542.94
2023-01-30T15:03:15.190Z,94558.45
2023-01-30T15:05:41.535Z,94552.28
2023-01-30T15:08:07.925Z,94555.00
2023-01-30T15:10:34.356Z,94555.00
2023-01-30T15:13:00.767Z,94554.13
2023-01-30T15:15:27.127Z,94560.83
2023-01-30T15:18:06.993Z,94554.04
2023-01-30T15:20:20.216Z,94558.72
2023-01-30T15:22:46.273Z,94556.77
2023-01-30T15:25:12.649Z,94554.04
2023-01-30T15:27:39.069Z,94555.73
2023-01-30T15:30:05.504Z,94559.45
2023-01-30T15:32:31.840Z,94564.88
2023-01-30T15:34:58.186Z,94569.44
2023-01-30T15:37:24.573Z,94567.19
2023-01-30T15:39:50.922Z,94573.31
2023-01-30T15:42:17.308Z,94573.78
2023-01-30T15:44:43.646Z,94575.89
2023-01-30T15:47:10.023Z,94575.89
2023-01-30T15:49:36.365Z,94567.80
2023-01-30T15:52:02.755Z,94570.61
2023-01-30T15:54:29.093Z,94573.80
2023-01-30T15:56:55.491Z,94568.97
2023-01-30T15:59:21.875Z,94572.37
2023-01-30T16:01:48.262Z,94566.30
2023-01-30T16:04:14.603Z,94565.45
2023-01-30T16:06:40.991Z,94564.78
2023-01-30T16:09:07.336Z,94561.39
2023-01-30T16:11:33.739Z,94560.09
2023-01-30T16:14:00.107Z,94562.33
2023-01-30T16:16:26.528Z,94555.53
2023-01-30T16:18:52.885Z,94552.13
2023-01-30T16:21:19.282Z,94552.39
2023-01-30T16:23:45.614Z,94549.23
2023-01-30T16:26:12.079Z,94552.75
2023-01-30T16:28:38.397Z,94553.69
2023-01-30T16:31:04.900Z,94549.50
2023-01-30T16:33:31.127Z,94545.95
2023-01-30T16:35:57.555Z,94549.61
2023-01-30T16:38:23.903Z,94547.86
2023-01-30T16:40:50.290Z,94547.19
2023-01-30T16:43:16.630Z,94548.68
2023-01-30T16:45:43.036Z,94547.19
2023-01-30T16:48:11.983Z,94543.32
2023-01-30T16:50:38.372Z,94544.88
2023-01-30T16:53:04.719Z,94542.62
2023-01-30T16:55:31.106Z,94538.55
2023-01-30T16:57:59.915Z,94551.31
2023-01-30T17:00:26.292Z,94545.13
2023-01-30T17:02:52.636Z,94546.06
2023-01-30T17:05:19.052Z,94542.00
2023-01-30T17:07:45.404Z,94534.86
2023-01-30T17:10:11.827Z,94536.96
2023-01-30T17:12:38.183Z,94530.78
2023-01-30T17:15:04.571Z,94543.20
2023-01-30T17:17:30.924Z,94544.95
2023-01-30T17:19:57.383Z,94548.46
2023-01-30T17:22:23.759Z,94551.03
2023-01-30T17:24:50.187Z,94550.10
2023-01-30T17:27:16.519Z,94536.20
2023-01-30T17:29:43.934Z,94536.20
2023-01-30T17:32:09.272Z,94538.42
2023-01-30T17:34:35.692Z,94544.19
2023-01-30T17:37:02.037Z,94544.66
2023-01-30T17:39:28.447Z,94535.78
2023-01-30T17:41:54.834Z,94538.36
2023-01-30T17:44:21.216Z,94529.46
2023-01-30T17:46:47.576Z,94529.46
2023-01-30T17:49:13.949Z,94533.58
2023-01-30T17:51:40.296Z,94527.76
2023-01-30T17:54:06.697Z,94526.47
2023-01-30T17:56:33.047Z,94527.41
2023-01-30T17:58:59.476Z,94528.34
2023-01-30T18:01:25.884Z,94528.02
2023-01-30T18:03:52.214Z,94529.16
2023-01-30T18:06:18.557Z,94528.13
2023-01-30T18:08:44.981Z,94522.31
2023-01-30T18:11:12.556Z,94521.81
2023-01-30T18:13:37.723Z,94515.88
2023-01-30T18:16:04.136Z,94530.35
2023-01-30T18:18:30.556Z,94517.48
2023-01-30T18:20:56.891Z,94514.44
2023-01-30T18:23:23.277Z,94512.13
2023-01-30T18:25:49.625Z,94524.27
2023-01-30T18:28:16.011Z,94512.94
2023-01-30T18:30:42.395Z,94506.03
2023-01-30T18:33:08.747Z,94509.28
2023-01-30T18:35:35.096Z,94512.13
2023-01-30T18:38:02.920Z,94512.27
2023-01-30T18:40:27.821Z,94520.78
2023-01-30T18:42:54.220Z,94526.75
2023-01-30T18:45:23.077Z,94508.16
2023-01-30T18:47:49.466Z,94517.64
2023-01-30T18:50:15.849Z,94516.50
2023-01-30T18:52:42.289Z,94524.08
2023-01-30T18:55:08.611Z,94523.88
2023-01-30T18:57:34.997Z,94511.47
2023-01-30T19:00:01.357Z,94520.16
2023-01-30T19:02:27.761Z,94517.38
2023-01-30T19:04:54.096Z,94517.84
2023-01-30T19:07:20.497Z,94512.34
2023-01-30T19:09:46.851Z,94520.06
2023-01-30T19:12:13.252Z,94519.39
2023-01-30T19:14:39.592Z,94516.11
2023-01-30T19:17:05.997Z,94513.27
2023-01-30T19:19:32.587Z,94528.04
2023-01-30T19:21:58.759Z,94526.86
2023-01-30T19:24:25.199Z,94525.11
2023-01-30T19:26:51.647Z,94516.45
2023-01-30T19:29:17.868Z,94519.14
2023-01-30T19:31:44.397Z,94521.05
2023-01-30T19:34:10.686Z,94515.78
2023-01-30T19:36:37.078Z,94514.25
2023-01-30T19:39:03.519Z,94508.06
2023-01-30T19:41:30.064Z,94491.09
2023-01-30T19:43:56.411Z,94495.42
2023-01-30T19:46:22.881Z,94484.45
2023-01-30T19:48:49.153Z,94491.57
2023-01-30T19:51:15.794Z,94485.28
2023-01-30T19:53:41.885Z,94481.42
2023-01-30T19:56:08.268Z,94484.25
2023-01-30T19:58:34.608Z,94484.25
2023-01-30T20:01:01.001Z,94477.47
2023-01-30T20:03:27.336Z,94478.40
2023-01-30T20:05:53.723Z,94473.86
2023-01-30T20:08:31.943Z,94473.39
2023-01-30T20:10:46.458Z,94473.30
2023-01-30T20:13:13.363Z,94470.84
2023-01-30T20:15:39.222Z,94461.72
2023-01-30T20:18:05.559Z,94460.69
2023-01-30T20:20:31.958Z,94455.91
2023-01-30T20:22:58.295Z,94459.20
2023-01-30T20:25:24.710Z,94453.44
2023-01-30T20:27:51.033Z,94446.45
2023-01-30T20:30:17.815Z,94455.45
2023-01-30T20:32:43.758Z,94454.31
2023-01-30T20:35:10.146Z,94457.55
2023-01-30T20:37:36.498Z,94454.42
2023-01-30T20:40:02.895Z,94447.17
2023-01-30T20:42:29.241Z,94451.64
2023-01-30T20:44:55.639Z,94451.64
2023-01-30T20:47:21.983Z,94454.47
2023-01-30T20:49:48.373Z,94453.19
2023-01-30T20:52:14.713Z,94457.36
2023-01-30T20:54:41.106Z,94457.97
2023-01-30T20:57:07.474Z,94456.48
2023-01-30T20:59:33.840Z,94456.48
2023-01-30T21:02:00.180Z,94455.55
2023-01-30T21:04:26.650Z,94465.95
2023-01-30T21:06:52.950Z,94469.20
2023-01-30T21:09:20.748Z,94457.55
2023-01-30T21:11:48.123Z,94462.34
2023-01-30T21:14:14.500Z,94466.31
2023-01-30T21:16:40.937Z,94468.16
2023-01-30T21:19:08.195Z,94465.52
2023-01-30T21:21:33.593Z,94458.59
2023-01-30T21:23:59.980Z,94464.34
2023-01-30T21:26:26.375Z,94453.38
2023-01-30T21:28:52.665Z,94455.48
2023-01-30T21:31:19.134Z,94453.38
2023-01-30T21:33:45.410Z,94454.78
2023-01-30T21:36:11.799Z,94450.56
2023-01-30T21:38:38.146Z,94451.06
2023-01-30T21:41:04.532Z,94446.71
2023-01-30T21:43:30.901Z,94441.82
2023-01-30T21:45:57.293Z,94437.96
2023-01-30T21:48:23.633Z,94444.39
2023-01-30T21:50:50.051Z,94448.86
2023-01-30T21:53:16.367Z,94449.68
2023-01-30T21:55:42.748Z,94450.61
2023-01-30T21:58:09.088Z,94451.08
2023-01-30T22:00:35.503Z,94450.97
2023-01-30T22:03:01.845Z,94454.25
2023-01-30T22:05:28.276Z,94454.04
2023-01-30T22:07:54.607Z,94460.57
2023-01-30T22:10:21.252Z,94466.18
2023-01-30T22:12:47.581Z,94454.51
2023-01-30T22:15:13.970Z,94464.80
2023-01-30T22:17:40.329Z,94464.44
2023-01-30T22:20:06.713Z,94459.44
2023-01-30T22:22:33.120Z,94469.72
2023-01-30T22:24:59.513Z,94471.83
2023-01-30T22:27:25.928Z,94466.44
2023-01-30T22:29:52.323Z,94464.83
2023-01-30T22:32:18.670Z,94458.52
2023-01-30T22:34:45.058Z,94459.33
2023-01-30T22:37:11.410Z,94448.38
2023-01-30T22:39:38.356Z,94453.02
2023-01-30T22:42:04.145Z,94454.80
2023-01-30T22:44:30.540Z,94451.41
2023-01-30T22:46:56.958Z,94447.66
2023-01-30T22:49:23.293Z,94452.34
2023-01-30T22:51:49.632Z,94452.59
2023-01-30T22:54:16.161Z,94455.05
2023-01-30T22:56:42.374Z,94450.38
2023-01-30T22:59:08.775Z,94461.59
2023-01-30T23:01:35.825Z,94459.63
2023-01-30T23:04:01.571Z,94461.34
2023-01-30T23:06:27.863Z,94466.13
2023-01-30T23:08:54.265Z,94464.62
2023-01-30T23:11:20.592Z,94464.98
2023-01-30T23:13:46.985Z,94459.84
2023-01-30T23:16:13.352Z,94459.02
2023-01-30T23:18:40.235Z,94451.41
2023-01-30T23:21:06.059Z,94451.41
2023-01-30T23:23:32.439Z,94450.27
2023-01-30T23:25:58.781Z,94448.05
2023-01-30T23:28:25.230Z,94455.41
2023-01-30T23:30:51.644Z,94450.38
2023-01-30T23:33:17.952Z,94450.73
2023-01-30T23:35:45.172Z,94445.23
2023-01-30T23:38:10.870Z,94443.95
2023-01-30T23:40:37.596Z,94441.88
2023-01-30T23:43:03.633Z,94428.06
2023-01-30T23:45:29.972Z,94421.31
2023-01-30T23:47:58.070Z,94423.61
2023-01-30T23:50:24.423Z,94417.92
2023-01-30T23:52:50.807Z,94415.08
2023-01-30T23:55:17.632Z,94413.47
2023-01-30T23:57:43.528Z,94414.75
